Aérodrome :







RETROUVEZ-NOUS SUR...

 
LOGIN :

S'inscrire | Disclaimer

   EN    FR    IT 

 









Légende :    VFR   VFR Marginal   IFR   IFR Intensif   IFR Très Intensif
Visi : 
Plafond : 
>= 8 km
>= 3000ft
5 à 8 km
1000 à 3000 ft
1500m à 5 km
500 à 1000 ft
800 à 1500m
200 à 500 ft
< 800m
< 200 ft
Symboles :   Orages  Brouillard  Fortes neiges  Fortes précipitations  Vent > 20 kt






- Altitude de l'aérodrome : 127 ft
- Code IATA : AXA


TQPF - Wallblake

DERNIER METAR :
  • 011900Z 09013KT 9999 SCT019 30/25 Q1014

METARs EXPIRÉS :
  • 011800Z 08013KT 9999 SCT020 30/25 Q1014
  • 011700Z 10014KT 9999 FEW020 30/25 Q1015

TAF TAF TQPF
Valide du 01 à 18h jusqu'au 02 à 18h UTC


011700Z 0118/0218 09014KT 9999 SCT018
PROB30
TEMPO 0118/021809015G30KT SHRA FEW012CB BKN016 BKN038
FIR TJZS / Amérique du Nord



MET'MAP, la Météo Aéronautique d'un coup d'oeil ! - Copyright ORBIFLY Décembre 2007 - Disclaimer

ORBIFLY MET'MAP TEAM :

Programmation & Développement : Alexandra Zaïnal
Sur une idée originale de : Baudouin d'Aumeries
Assistance à la programmation : Marc-Olivier Méhu
Soutien technique & logistique : Manuel Goepfert

Contact : metmap@orbifly.com




SOURCES & CREDITS :

   NOAA